createdAt,value
2017-09-03T00:00:52.771Z,10.1
2017-09-03T00:01:54.182Z,10.1
2017-09-03T00:02:55.560Z,10.1
2017-09-03T00:03:56.960Z,10.1
2017-09-03T00:04:58.330Z,10.1
2017-09-03T00:05:59.741Z,10.1
2017-09-03T00:07:01.106Z,10.1
2017-09-03T00:08:02.516Z,10.0
2017-09-03T00:09:03.887Z,10.0
2017-09-03T00:10:05.300Z,10.1
2017-09-03T00:11:06.671Z,10.1
2017-09-03T00:12:08.078Z,10.1
2017-09-03T00:13:09.447Z,10.1
2017-09-03T00:14:10.869Z,10.1
2017-09-03T00:15:12.231Z,10.1
2017-09-03T00:16:13.638Z,10.1
2017-09-03T00:17:15.006Z,10.1
2017-09-03T00:18:16.419Z,10.1
2017-09-03T00:19:17.796Z,10.1
2017-09-03T00:20:19.194Z,10.1
2017-09-03T00:21:20.570Z,10.1
2017-09-03T00:22:21.993Z,10.1
2017-09-03T00:23:23.377Z,10.1
2017-09-03T00:24:24.859Z,9.9
2017-09-03T00:25:26.231Z,10.0
2017-09-03T00:26:27.642Z,9.9
2017-09-03T00:27:29.019Z,9.9
2017-09-03T00:28:30.419Z,9.9
2017-09-03T00:29:31.790Z,9.9
2017-09-03T00:30:33.218Z,10.0
2017-09-03T00:31:34.591Z,10.0
2017-09-03T00:32:35.980Z,9.8
2017-09-03T00:33:37.344Z,9.8
2017-09-03T00:34:38.760Z,9.9
2017-09-03T00:35:40.126Z,9.9
2017-09-03T00:36:41.533Z,9.8
2017-09-03T00:37:42.906Z,9.8
2017-09-03T00:38:44.320Z,9.9
2017-09-03T00:39:45.680Z,9.8
2017-09-03T00:40:48.127Z,9.8
2017-09-03T00:41:49.494Z,9.9
2017-09-03T00:42:50.902Z,9.9
2017-09-03T00:43:52.272Z,9.9
2017-09-03T00:44:53.693Z,9.8
2017-09-03T00:45:55.056Z,9.9
2017-09-03T00:46:56.458Z,9.9
2017-09-03T00:47:57.821Z,9.9
2017-09-03T00:48:59.237Z,9.7
2017-09-03T00:50:00.610Z,9.8
2017-09-03T00:51:02.025Z,9.8
2017-09-03T00:52:03.393Z,9.7
2017-09-03T00:53:04.826Z,9.7
2017-09-03T00:54:06.197Z,9.7
2017-09-03T00:55:07.678Z,9.8
2017-09-03T00:56:09.045Z,9.7
2017-09-03T00:57:10.457Z,9.6
2017-09-03T00:58:11.828Z,9.6
2017-09-03T00:59:13.237Z,9.7
2017-09-03T01:00:14.606Z,9.6
2017-09-03T01:01:16.017Z,9.6
2017-09-03T01:02:17.385Z,9.5
2017-09-03T01:03:18.793Z,9.5
2017-09-03T01:04:20.165Z,9.6
2017-09-03T01:05:21.576Z,9.5
2017-09-03T01:06:22.941Z,9.6
2017-09-03T01:07:24.383Z,9.6
2017-09-03T01:08:25.728Z,9.6
2017-09-03T01:09:27.135Z,9.5
2017-09-03T01:10:28.503Z,9.5
2017-09-03T01:11:29.913Z,9.5
2017-09-03T01:12:31.285Z,9.5
2017-09-03T01:13:32.697Z,9.5
2017-09-03T01:14:34.061Z,9.5
2017-09-03T01:15:35.475Z,9.5
2017-09-03T01:16:36.841Z,9.4
2017-09-03T01:17:38.256Z,9.5
2017-09-03T01:18:39.626Z,9.6
2017-09-03T01:19:41.028Z,9.5
2017-09-03T01:20:42.402Z,9.4
2017-09-03T01:21:43.815Z,9.6
2017-09-03T01:22:45.180Z,9.5
2017-09-03T01:23:46.594Z,9.5
2017-09-03T01:24:47.961Z,9.5
2017-09-03T01:25:49.373Z,9.5
2017-09-03T01:26:50.740Z,9.5
2017-09-03T01:27:52.156Z,9.4
2017-09-03T01:28:53.524Z,9.5
2017-09-03T01:29:54.929Z,9.4
2017-09-03T01:30:56.317Z,9.4
2017-09-03T01:31:57.704Z,9.4
2017-09-03T01:32:59.078Z,9.4
2017-09-03T01:34:00.493Z,9.3
2017-09-03T01:35:01.863Z,9.3
2017-09-03T01:36:03.271Z,9.4
2017-09-03T01:37:04.652Z,9.4
2017-09-03T01:38:06.053Z,9.4
2017-09-03T01:39:07.420Z,9.3
2017-09-03T01:40:08.831Z,9.3
2017-09-03T01:41:10.196Z,9.3
2017-09-03T01:42:11.610Z,9.3
2017-09-03T01:43:12.979Z,9.3
2017-09-03T01:44:14.400Z,9.3
2017-09-03T01:45:15.770Z,9.3
2017-09-03T01:46:17.169Z,9.3
2017-09-03T01:47:18.537Z,9.2
2017-09-03T01:48:19.948Z,9.3
2017-09-03T01:49:21.317Z,9.2
2017-09-03T01:50:22.729Z,9.2
2017-09-03T01:51:24.097Z,9.2
2017-09-03T01:52:25.513Z,9.2
2017-09-03T01:53:26.893Z,9.2
2017-09-03T01:54:28.289Z,9.2
2017-09-03T01:55:29.666Z,9.2
2017-09-03T01:56:31.067Z,9.3
2017-09-03T01:57:32.436Z,9.2
2017-09-03T01:58:33.848Z,9.1
2017-09-03T01:59:35.219Z,9.2
2017-09-03T02:00:36.626Z,9.3
2017-09-03T02:01:37.992Z,9.3
2017-09-03T02:02:39.406Z,9.3
2017-09-03T02:03:40.794Z,9.2
2017-09-03T02:04:42.185Z,9.2
2017-09-03T02:05:43.564Z,9.2
2017-09-03T02:06:44.969Z,9.3
2017-09-03T02:07:46.334Z,9.3
2017-09-03T02:08:47.746Z,9.2
2017-09-03T02:09:49.105Z,9.2
2017-09-03T02:10:50.527Z,9.1
2017-09-03T02:11:51.895Z,9.2
2017-09-03T02:12:53.305Z,9.1
2017-09-03T02:13:54.679Z,9.1
2017-09-03T02:14:56.085Z,9.1
2017-09-03T02:15:57.453Z,9.1
2017-09-03T02:16:58.864Z,9.0
2017-09-03T02:18:00.235Z,9.1
2017-09-03T02:19:01.643Z,9.1
2017-09-03T02:20:03.010Z,9.1
2017-09-03T02:21:04.423Z,9.0
2017-09-03T02:22:05.803Z,9.0
2017-09-03T02:23:07.199Z,9.0
2017-09-03T02:24:08.605Z,9.0
2017-09-03T02:25:10.086Z,8.9
2017-09-03T02:26:11.452Z,9.0
2017-09-03T02:27:12.870Z,8.9
2017-09-03T02:28:14.236Z,8.9
2017-09-03T02:29:15.643Z,8.9
2017-09-03T02:30:17.015Z,8.9
2017-09-03T02:31:18.423Z,8.9
2017-09-03T02:32:19.789Z,8.9
2017-09-03T02:33:21.204Z,8.9
2017-09-03T02:34:22.582Z,8.8
2017-09-03T02:35:23.983Z,8.9
2017-09-03T02:36:25.348Z,8.9
2017-09-03T02:37:26.761Z,8.9
2017-09-03T02:38:28.132Z,8.9
2017-09-03T02:39:29.541Z,8.9
2017-09-03T02:40:30.910Z,8.9
2017-09-03T02:41:32.323Z,8.9
2017-09-03T02:42:33.696Z,8.8
2017-09-03T02:43:35.101Z,8.9
2017-09-03T02:44:36.491Z,8.8
2017-09-03T02:45:37.881Z,8.8
2017-09-03T02:46:39.246Z,8.8
2017-09-03T02:47:40.659Z,8.8
2017-09-03T02:48:42.028Z,8.8
2017-09-03T02:49:43.454Z,8.8
2017-09-03T02:50:44.820Z,8.7
2017-09-03T02:51:46.223Z,8.8
2017-09-03T02:52:47.587Z,8.7
2017-09-03T02:53:49.004Z,8.7
2017-09-03T02:54:50.370Z,8.7
2017-09-03T02:55:51.780Z,8.6
2017-09-03T02:56:53.149Z,8.6
2017-09-03T02:57:54.560Z,8.6
2017-09-03T02:58:55.925Z,8.7
2017-09-03T02:59:57.337Z,8.7
2017-09-03T03:00:58.709Z,8.6
2017-09-03T03:02:00.115Z,8.6
2017-09-03T03:03:01.499Z,8.6
2017-09-03T03:04:02.900Z,8.6
2017-09-03T03:05:04.262Z,8.5
2017-09-03T03:06:05.679Z,8.5
2017-09-03T03:07:07.058Z,8.5
2017-09-03T03:08:08.456Z,8.5
2017-09-03T03:09:09.825Z,8.5
2017-09-03T03:10:11.237Z,8.6
2017-09-03T03:11:12.611Z,8.5
2017-09-03T03:12:14.016Z,8.4
2017-09-03T03:13:15.385Z,8.4
2017-09-03T03:14:16.797Z,8.5
2017-09-03T03:15:18.164Z,8.5
2017-09-03T03:16:19.573Z,8.5
2017-09-03T03:17:20.947Z,8.5
2017-09-03T03:18:22.352Z,8.5
2017-09-03T03:19:23.718Z,8.5
2017-09-03T03:20:25.131Z,8.4
2017-09-03T03:21:26.503Z,8.4
2017-09-03T03:22:27.913Z,8.5
2017-09-03T03:23:29.296Z,8.5
2017-09-03T03:24:30.722Z,8.5
2017-09-03T03:25:32.091Z,8.4
2017-09-03T03:26:33.473Z,8.4
2017-09-03T03:27:34.839Z,8.4
2017-09-03T03:28:36.251Z,8.4
2017-09-03T03:29:37.615Z,8.4
2017-09-03T03:30:39.035Z,8.4
2017-09-03T03:31:40.400Z,8.4
2017-09-03T03:32:41.814Z,8.3
2017-09-03T03:33:43.183Z,8.3
2017-09-03T03:34:44.590Z,8.4
2017-09-03T03:35:45.989Z,8.3
2017-09-03T03:36:47.370Z,8.3
2017-09-03T03:37:48.743Z,8.3
2017-09-03T03:38:50.144Z,8.2
2017-09-03T03:39:51.520Z,8.3
2017-09-03T03:40:52.935Z,8.3
2017-09-03T03:41:54.309Z,8.3
2017-09-03T03:42:55.709Z,8.3
2017-09-03T03:43:57.078Z,8.2
2017-09-03T03:44:58.489Z,8.2
2017-09-03T03:45:59.856Z,8.2
2017-09-03T03:47:01.268Z,8.2
2017-09-03T03:48:02.634Z,8.2
2017-09-03T03:49:04.047Z,8.2
2017-09-03T03:50:05.417Z,8.2
2017-09-03T03:51:06.827Z,8.2
2017-09-03T03:52:08.194Z,8.2
2017-09-03T03:53:09.606Z,8.2
2017-09-03T03:54:10.976Z,8.2
2017-09-03T03:55:12.386Z,8.2
2017-09-03T03:56:13.753Z,8.2
2017-09-03T03:57:15.171Z,8.2
2017-09-03T03:58:16.542Z,8.1
2017-09-03T03:59:17.947Z,8.1
2017-09-03T04:00:19.314Z,8.2
2017-09-03T04:01:20.725Z,8.1
2017-09-03T04:02:22.105Z,8.1
2017-09-03T04:03:23.554Z,8.1
2017-09-03T04:04:24.917Z,8.1
2017-09-03T04:05:26.386Z,8.1
2017-09-03T04:06:27.754Z,8.0
2017-09-03T04:07:29.211Z,8.1
2017-09-03T04:08:30.585Z,8.0
2017-09-03T04:09:32.050Z,8.0
2017-09-03T04:10:33.413Z,8.1
2017-09-03T04:11:34.827Z,8.1
2017-09-03T04:12:36.196Z,8.0
2017-09-03T04:13:37.606Z,8.1
2017-09-03T04:14:38.979Z,8.1
2017-09-03T04:15:40.387Z,8.0
2017-09-03T04:16:41.753Z,8.0
2017-09-03T04:17:43.168Z,8.1
2017-09-03T04:18:44.536Z,8.0
2017-09-03T04:19:45.949Z,8.0
2017-09-03T04:20:47.316Z,8.0
2017-09-03T04:21:48.725Z,8.0
2017-09-03T04:22:50.094Z,8.0
2017-09-03T04:23:51.505Z,8.1
2017-09-03T04:24:52.871Z,8.0
2017-09-03T04:25:54.285Z,7.9
2017-09-03T04:26:55.655Z,7.9
2017-09-03T04:27:57.060Z,8.0
2017-09-03T04:28:58.436Z,8.0
2017-09-03T04:29:59.847Z,8.0
2017-09-03T04:31:01.215Z,8.0
2017-09-03T04:32:02.624Z,8.0
2017-09-03T04:33:03.991Z,8.0
2017-09-03T04:34:05.405Z,8.0
2017-09-03T04:35:06.782Z,8.0
2017-09-03T04:36:08.183Z,8.0
2017-09-03T04:37:09.551Z,7.9
2017-09-03T04:38:10.974Z,7.9
2017-09-03T04:39:12.332Z,8.0
2017-09-03T04:40:13.744Z,8.0
2017-09-03T04:41:15.113Z,8.0
2017-09-03T04:42:16.524Z,7.9
2017-09-03T04:43:17.894Z,8.0
2017-09-03T04:44:19.304Z,7.9
2017-09-03T04:45:20.675Z,7.8
2017-09-03T04:46:22.092Z,7.9
2017-09-03T04:47:23.464Z,7.9
2017-09-03T04:48:24.863Z,7.9
2017-09-03T04:49:26.233Z,7.9
2017-09-03T04:50:27.658Z,7.9
2017-09-03T04:51:29.027Z,7.9
2017-09-03T04:52:30.420Z,7.9
2017-09-03T04:53:31.789Z,7.8
2017-09-03T04:54:33.201Z,7.8
2017-09-03T04:55:34.571Z,7.9
2017-09-03T04:56:35.982Z,7.9
2017-09-03T04:57:37.355Z,7.9
2017-09-03T04:58:38.760Z,7.9
2017-09-03T04:59:40.131Z,7.9
2017-09-03T05:00:41.544Z,7.9
2017-09-03T05:01:42.909Z,7.9
2017-09-03T05:02:44.324Z,7.9
2017-09-03T05:03:45.693Z,7.8
2017-09-03T05:04:47.100Z,7.9
2017-09-03T05:05:48.480Z,7.9
2017-09-03T05:06:49.885Z,7.9
2017-09-03T05:07:51.257Z,7.9
2017-09-03T05:08:52.663Z,8.0
2017-09-03T05:09:54.036Z,8.0
2017-09-03T05:10:55.442Z,8.0
2017-09-03T05:11:56.814Z,8.0
2017-09-03T05:12:58.220Z,8.0
2017-09-03T05:13:59.590Z,7.9
2017-09-03T05:15:00.999Z,8.0
2017-09-03T05:16:02.374Z,8.0
2017-09-03T05:17:03.776Z,8.0
2017-09-03T05:18:05.148Z,8.0
2017-09-03T05:19:06.563Z,8.0
2017-09-03T05:20:07.928Z,8.0
2017-09-03T05:21:09.335Z,8.0
2017-09-03T05:22:10.706Z,8.1
2017-09-03T05:23:12.117Z,8.0
2017-09-03T05:24:13.487Z,8.0
2017-09-03T05:25:14.897Z,8.0
2017-09-03T05:26:16.264Z,8.0
2017-09-03T05:27:17.677Z,8.1
2017-09-03T05:28:19.050Z,8.1
2017-09-03T05:29:20.457Z,8.0
2017-09-03T05:30:21.828Z,8.1
2017-09-03T05:31:23.234Z,8.1
2017-09-03T05:32:24.606Z,8.1
2017-09-03T05:33:26.018Z,8.2
2017-09-03T05:34:27.388Z,8.1
2017-09-03T05:35:28.794Z,8.1
2017-09-03T05:36:30.170Z,8.1
2017-09-03T05:37:31.575Z,8.2
2017-09-03T05:38:32.947Z,8.1
2017-09-03T05:39:34.352Z,8.2
2017-09-03T05:40:35.724Z,8.2
2017-09-03T05:41:37.130Z,8.2
2017-09-03T05:42:38.503Z,8.2
2017-09-03T05:43:39.914Z,8.3
2017-09-03T05:44:41.287Z,8.3
2017-09-03T05:45:42.693Z,8.4
2017-09-03T05:46:44.067Z,8.4
2017-09-03T05:47:45.471Z,8.5
2017-09-03T05:48:46.846Z,8.5
2017-09-03T05:49:48.251Z,8.5
2017-09-03T05:50:49.619Z,8.5
2017-09-03T05:51:51.033Z,8.6
2017-09-03T05:52:52.406Z,8.5
2017-09-03T05:53:53.810Z,8.6
2017-09-03T05:54:55.183Z,8.6
2017-09-03T05:55:56.588Z,8.7
2017-09-03T05:56:57.959Z,8.7
2017-09-03T05:57:59.369Z,8.8
2017-09-03T05:59:00.754Z,8.8
2017-09-03T06:00:02.196Z,8.9
2017-09-03T06:01:03.566Z,8.9
2017-09-03T06:02:05.030Z,8.9
2017-09-03T06:03:06.404Z,8.9
2017-09-03T06:04:07.810Z,9.0
2017-09-03T06:05:09.182Z,9.0
2017-09-03T06:06:10.589Z,9.1
2017-09-03T06:07:11.961Z,9.1
2017-09-03T06:08:13.384Z,9.2
2017-09-03T06:09:14.756Z,9.3
2017-09-03T06:10:16.150Z,9.2
2017-09-03T06:11:17.525Z,9.3
2017-09-03T06:12:18.929Z,9.5
2017-09-03T06:13:20.300Z,9.4
2017-09-03T06:14:21.708Z,9.5
2017-09-03T06:15:23.089Z,9.5
2017-09-03T06:16:24.492Z,9.7
2017-09-03T06:17:25.866Z,9.8
2017-09-03T06:18:27.268Z,9.9
2017-09-03T06:19:28.652Z,9.9
2017-09-03T06:20:30.049Z,10.1
2017-09-03T06:21:31.433Z,10.1
2017-09-03T06:22:32.830Z,10.2
2017-09-03T06:23:34.209Z,10.3
2017-09-03T06:24:35.608Z,10.4
2017-09-03T06:25:36.978Z,10.6
2017-09-03T06:26:38.388Z,10.7
2017-09-03T06:27:39.763Z,10.8
2017-09-03T06:28:41.168Z,10.8
2017-09-03T06:29:42.550Z,11.0
2017-09-03T06:30:43.949Z,11.2
2017-09-03T06:31:45.328Z,11.3
2017-09-03T06:32:46.729Z,11.4
2017-09-03T06:33:48.119Z,11.5
2017-09-03T06:34:49.508Z,11.6
2017-09-03T06:35:50.885Z,11.8
2017-09-03T06:36:52.286Z,11.8
2017-09-03T06:37:53.673Z,12.0
2017-09-03T06:38:55.065Z,12.1
2017-09-03T06:39:56.455Z,12.2
2017-09-03T06:40:57.854Z,12.4
2017-09-03T06:41:59.250Z,12.5
2017-09-03T06:43:00.727Z,12.6
2017-09-03T06:44:02.108Z,12.6
2017-09-03T06:45:03.505Z,12.7
2017-09-03T06:46:04.882Z,12.9
2017-09-03T06:47:06.289Z,13.0
2017-09-03T06:48:07.674Z,13.1
2017-09-03T06:49:09.088Z,13.3
2017-09-03T06:50:10.477Z,13.3
2017-09-03T06:51:11.945Z,13.4
2017-09-03T06:52:13.327Z,13.5
2017-09-03T06:53:14.727Z,13.6
2017-09-03T06:54:16.106Z,13.7
2017-09-03T06:55:17.615Z,13.8
2017-09-03T06:56:18.992Z,13.9
2017-09-03T06:57:20.386Z,14.0
2017-09-03T06:58:21.769Z,14.1
2017-09-03T06:59:23.168Z,14.2
2017-09-03T07:00:24.548Z,14.3
2017-09-03T07:01:25.945Z,14.3
2017-09-03T07:02:27.326Z,14.5
2017-09-03T07:03:28.726Z,14.6
2017-09-03T07:04:30.106Z,14.7
2017-09-03T07:05:31.497Z,14.8
2017-09-03T07:06:32.886Z,14.9
2017-09-03T07:07:34.284Z,15.0
2017-09-03T07:08:35.686Z,15.1
2017-09-03T07:09:37.062Z,15.3
2017-09-03T07:10:38.449Z,15.4
2017-09-03T07:11:39.848Z,15.5
2017-09-03T07:12:41.232Z,15.6
2017-09-03T07:13:42.728Z,15.7
2017-09-03T07:14:44.106Z,15.8
2017-09-03T07:15:45.507Z,15.9
2017-09-03T07:16:46.885Z,15.9
2017-09-03T07:17:48.292Z,15.9
2017-09-03T07:18:49.675Z,16.0
2017-09-03T07:19:51.169Z,16.1
2017-09-03T07:20:52.547Z,16.3
2017-09-03T07:21:53.945Z,16.3
2017-09-03T07:22:55.338Z,16.4
2017-09-03T07:23:56.727Z,16.5
2017-09-03T07:24:58.107Z,16.7
2017-09-03T07:25:59.506Z,16.8
2017-09-03T07:27:00.885Z,16.8
2017-09-03T07:28:02.290Z,17.0
2017-09-03T07:29:03.671Z,17.0
2017-09-03T07:30:05.167Z,17.1
2017-09-03T07:31:06.546Z,17.1
2017-09-03T07:32:07.946Z,17.3
2017-09-03T07:33:09.328Z,17.5
2017-09-03T07:34:10.725Z,17.5
2017-09-03T07:35:12.110Z,17.6
2017-09-03T07:36:13.503Z,17.6
2017-09-03T07:37:14.886Z,17.8
2017-09-03T07:38:16.288Z,17.9
2017-09-03T07:39:17.671Z,17.9
2017-09-03T07:40:19.169Z,18.0
2017-09-03T07:41:20.552Z,18.0
2017-09-03T07:42:21.948Z,18.2
2017-09-03T07:43:23.335Z,18.2
2017-09-03T07:44:24.832Z,18.2
2017-09-03T07:45:26.214Z,18.3
2017-09-03T07:46:27.714Z,18.3
2017-09-03T07:47:29.096Z,18.4
2017-09-03T07:48:30.489Z,18.5
2017-09-03T07:49:31.874Z,18.6
2017-09-03T07:50:33.269Z,18.7
2017-09-03T07:51:34.674Z,18.8
2017-09-03T07:52:36.151Z,18.8
2017-09-03T07:53:37.532Z,19.0
2017-09-03T07:54:38.932Z,19.3
2017-09-03T07:55:40.316Z,19.3
2017-09-03T07:56:41.811Z,19.4
2017-09-03T07:57:43.227Z,19.4
2017-09-03T07:58:44.693Z,19.4
2017-09-03T07:59:46.073Z,19.5
2017-09-03T08:00:47.475Z,19.6
2017-09-03T08:01:48.862Z,19.8
2017-09-03T08:02:50.357Z,20.0
2017-09-03T08:03:51.743Z,20.1
2017-09-03T08:04:53.237Z,20.2
2017-09-03T08:05:54.613Z,20.2
2017-09-03T08:06:56.016Z,20.3
2017-09-03T08:07:57.402Z,20.3
2017-09-03T08:08:58.905Z,20.3
2017-09-03T08:10:00.283Z,20.4
2017-09-03T08:11:01.781Z,20.5
2017-09-03T08:12:03.167Z,20.7
2017-09-03T08:13:04.665Z,20.6
2017-09-03T08:14:06.052Z,20.8
2017-09-03T08:15:07.544Z,20.9
2017-09-03T08:16:08.933Z,20.8
2017-09-03T08:17:10.428Z,20.9
2017-09-03T08:18:11.814Z,20.9
2017-09-03T08:19:13.315Z,20.9
2017-09-03T08:20:14.698Z,21.0
2017-09-03T08:21:16.218Z,21.0
2017-09-03T08:22:17.602Z,21.0
2017-09-03T08:23:19.073Z,21.0
2017-09-03T08:24:20.458Z,21.1
2017-09-03T08:25:21.954Z,21.2
2017-09-03T08:26:23.352Z,21.2
2017-09-03T08:27:24.971Z,21.4
2017-09-03T08:28:26.335Z,21.5
2017-09-03T08:29:27.822Z,21.4
2017-09-03T08:30:29.209Z,21.4
2017-09-03T08:31:30.704Z,21.6
2017-09-03T08:32:32.089Z,21.7
2017-09-03T08:33:33.590Z,21.8
2017-09-03T08:34:34.976Z,21.7
2017-09-03T08:35:36.494Z,21.8
2017-09-03T08:36:37.885Z,21.8
2017-09-03T08:37:39.350Z,21.7
2017-09-03T08:38:40.770Z,21.9
2017-09-03T08:39:42.238Z,21.9
2017-09-03T08:40:43.630Z,22.0
2017-09-03T08:41:46.042Z,22.1
2017-09-03T08:42:47.950Z,22.2
2017-09-03T08:43:49.430Z,22.3
2017-09-03T08:44:50.812Z,22.3
2017-09-03T08:45:52.311Z,22.3
2017-09-03T08:46:53.697Z,22.4
2017-09-03T08:47:55.194Z,22.4
2017-09-03T08:48:56.579Z,22.5
2017-09-03T08:49:58.122Z,22.5
2017-09-03T08:50:59.509Z,22.5
2017-09-03T08:52:00.958Z,22.5
2017-09-03T08:53:02.361Z,22.5
2017-09-03T08:54:03.840Z,22.5
2017-09-03T08:55:05.226Z,22.6
2017-09-03T08:56:06.721Z,22.7
2017-09-03T08:57:08.116Z,22.7
2017-09-03T08:58:09.604Z,22.6
2017-09-03T08:59:10.987Z,22.6
2017-09-03T09:00:12.487Z,22.7
2017-09-03T09:01:13.874Z,22.7
2017-09-03T09:02:15.366Z,22.5
2017-09-03T09:03:16.763Z,22.6
2017-09-03T09:04:18.249Z,22.5
2017-09-03T09:05:19.635Z,22.5
2017-09-03T09:06:21.132Z,22.4
2017-09-03T09:07:22.519Z,22.4
2017-09-03T09:08:24.014Z,22.4
2017-09-03T09:09:25.398Z,22.6
2017-09-03T09:10:26.896Z,22.5
2017-09-03T09:11:28.279Z,22.6
2017-09-03T09:12:29.786Z,22.7
2017-09-03T09:13:31.173Z,22.9
2017-09-03T09:14:32.662Z,22.9
2017-09-03T09:15:34.055Z,23.0
2017-09-03T09:16:35.544Z,23.2
2017-09-03T09:17:36.937Z,23.1
2017-09-03T09:18:38.425Z,23.1
2017-09-03T09:19:39.811Z,23.1
2017-09-03T09:20:41.307Z,23.3
2017-09-03T09:21:42.694Z,23.2
2017-09-03T09:22:44.187Z,23.3
2017-09-03T09:23:45.575Z,23.3
2017-09-03T09:24:47.069Z,23.4
2017-09-03T09:25:48.458Z,23.4
2017-09-03T09:26:49.950Z,23.4
2017-09-03T09:27:51.338Z,23.4
2017-09-03T09:28:52.839Z,23.5
2017-09-03T09:29:54.219Z,23.5
2017-09-03T09:30:55.717Z,23.4
2017-09-03T09:31:57.101Z,23.5
2017-09-03T09:32:58.597Z,23.5
2017-09-03T09:33:59.984Z,23.5
2017-09-03T09:35:01.501Z,23.6
2017-09-03T09:36:02.908Z,23.7
2017-09-03T09:37:04.361Z,23.7
2017-09-03T09:38:05.756Z,23.9
2017-09-03T09:39:07.454Z,23.8
2017-09-03T09:40:08.842Z,23.9
2017-09-03T09:41:10.640Z,23.8
2017-09-03T09:42:12.063Z,23.8
2017-09-03T09:43:13.518Z,23.9
2017-09-03T09:44:14.914Z,23.9
2017-09-03T09:45:16.401Z,23.8
2017-09-03T09:46:17.789Z,23.7
2017-09-03T09:47:19.284Z,23.7
2017-09-03T09:48:20.675Z,23.7
2017-09-03T09:49:22.187Z,23.9
2017-09-03T09:50:23.572Z,24.0
2017-09-03T09:51:25.045Z,24.1
2017-09-03T09:52:26.436Z,24.1
2017-09-03T09:53:27.933Z,24.1
2017-09-03T09:54:29.319Z,24.0
2017-09-03T09:55:30.812Z,24.1
2017-09-03T09:56:32.198Z,24.2
2017-09-03T09:57:33.692Z,24.4
2017-09-03T09:58:35.102Z,24.4
2017-09-03T09:59:36.575Z,24.5
2017-09-03T10:00:37.971Z,24.5
2017-09-03T10:01:39.481Z,24.6
2017-09-03T10:02:40.869Z,24.5
2017-09-03T10:03:42.339Z,24.6
2017-09-03T10:04:43.724Z,24.8
2017-09-03T10:05:45.235Z,25.0
2017-09-03T10:06:46.638Z,25.0
2017-09-03T10:07:48.103Z,25.1
2017-09-03T10:08:49.489Z,25.2
2017-09-03T10:09:50.987Z,25.3
2017-09-03T10:10:52.370Z,25.4
2017-09-03T10:11:53.870Z,25.6
2017-09-03T10:12:55.258Z,25.7
2017-09-03T10:13:56.748Z,25.7
2017-09-03T10:14:58.141Z,25.8
2017-09-03T10:15:59.632Z,25.7
2017-09-03T10:17:01.018Z,25.5
2017-09-03T10:18:02.515Z,25.4
2017-09-03T10:19:03.898Z,25.5
2017-09-03T10:20:05.396Z,25.5
2017-09-03T10:21:06.783Z,25.6
2017-09-03T10:22:08.280Z,25.5
2017-09-03T10:23:09.663Z,25.4
2017-09-03T10:24:11.159Z,25.5
2017-09-03T10:25:12.551Z,25.6
2017-09-03T10:26:14.041Z,25.5
2017-09-03T10:27:15.444Z,25.5
2017-09-03T10:28:16.922Z,25.5
2017-09-03T10:29:18.310Z,25.6
2017-09-03T10:30:19.828Z,25.5
2017-09-03T10:31:21.217Z,25.3
2017-09-03T10:32:22.697Z,25.3
2017-09-03T10:33:24.091Z,25.3
2017-09-03T10:34:25.569Z,25.3
2017-09-03T10:35:26.961Z,25.3
2017-09-03T10:36:28.450Z,25.4
2017-09-03T10:37:29.843Z,25.5
2017-09-03T10:38:31.334Z,25.6
2017-09-03T10:39:32.728Z,25.6
2017-09-03T10:40:34.214Z,25.6
2017-09-03T10:41:35.604Z,25.7
2017-09-03T10:42:37.106Z,25.7
2017-09-03T10:43:38.488Z,25.7
2017-09-03T10:44:40.184Z,25.8
2017-09-03T10:45:41.582Z,25.7
2017-09-03T10:46:43.068Z,25.7
2017-09-03T10:47:44.456Z,25.7
2017-09-03T10:48:45.901Z,25.7
2017-09-03T10:49:47.569Z,25.8
2017-09-03T10:50:49.942Z,25.8
2017-09-03T10:51:51.282Z,25.9
2017-09-03T10:52:52.897Z,25.9
2017-09-03T10:53:54.282Z,25.8
2017-09-03T10:54:55.673Z,25.8
2017-09-03T10:55:57.067Z,25.7
2017-09-03T10:56:58.459Z,25.8
2017-09-03T10:57:59.850Z,26.0
2017-09-03T10:59:01.240Z,26.3
2017-09-03T11:00:02.632Z,26.4
2017-09-03T11:01:04.027Z,26.6
2017-09-03T11:02:05.439Z,26.7
2017-09-03T11:03:06.815Z,26.7
2017-09-03T11:04:08.213Z,26.5
2017-09-03T11:05:09.599Z,26.5
2017-09-03T11:06:10.990Z,26.7
2017-09-03T11:07:12.385Z,26.8
2017-09-03T11:08:14.251Z,26.9
2017-09-03T11:09:15.935Z,26.7
2017-09-03T11:10:17.305Z,26.7
2017-09-03T11:11:18.703Z,26.6
2017-09-03T11:12:20.095Z,26.7
2017-09-03T11:13:21.492Z,26.5
2017-09-03T11:14:22.886Z,26.5
2017-09-03T11:15:24.268Z,26.6
2017-09-03T11:16:25.669Z,26.7
2017-09-03T11:17:27.061Z,26.9
2017-09-03T11:18:28.475Z,27.0
2017-09-03T11:19:29.871Z,27.1
2017-09-03T11:20:31.263Z,27.2
2017-09-03T11:21:33.038Z,27.2
2017-09-03T11:22:34.450Z,27.0
2017-09-03T11:23:35.845Z,26.9
2017-09-03T11:24:37.234Z,27.0
2017-09-03T11:25:38.630Z,27.0
2017-09-03T11:26:40.027Z,27.1
2017-09-03T11:27:41.419Z,27.2
2017-09-03T11:28:42.812Z,27.5
2017-09-03T11:29:44.208Z,27.4
2017-09-03T11:30:45.598Z,27.5
2017-09-03T11:31:47.383Z,27.5
2017-09-03T11:32:48.771Z,27.5
2017-09-03T11:33:50.165Z,27.4
2017-09-03T11:34:51.560Z,27.2
2017-09-03T11:35:52.947Z,27.0
2017-09-03T11:36:54.344Z,27.0
2017-09-03T11:37:55.739Z,27.1
2017-09-03T11:38:57.149Z,27.2
2017-09-03T11:39:58.543Z,27.3
2017-09-03T11:41:00.128Z,27.4
2017-09-03T11:42:01.612Z,27.4
2017-09-03T11:43:03.034Z,27.3
2017-09-03T11:44:04.436Z,27.1
2017-09-03T11:45:05.931Z,26.7
2017-09-03T11:46:07.342Z,26.5
2017-09-03T11:47:08.742Z,26.3
2017-09-03T11:48:10.143Z,26.2
2017-09-03T11:49:11.568Z,26.2
2017-09-03T11:50:12.959Z,26.3
2017-09-03T11:51:14.338Z,26.4
2017-09-03T11:52:15.749Z,26.8
2017-09-03T11:53:17.191Z,27.1
2017-09-03T11:54:18.588Z,27.5
2017-09-03T11:55:20.053Z,27.6
2017-09-03T11:56:21.418Z,27.5
2017-09-03T11:57:22.817Z,27.4
2017-09-03T11:58:24.224Z,27.6
2017-09-03T11:59:25.628Z,27.6
2017-09-03T12:00:27.198Z,27.6
2017-09-03T12:01:28.607Z,27.3
2017-09-03T12:02:30.051Z,27.3
2017-09-03T12:03:32.059Z,27.3
2017-09-03T12:04:33.519Z,27.2
2017-09-03T12:05:35.039Z,27.1
2017-09-03T12:06:36.695Z,26.9
2017-09-03T12:07:38.083Z,26.7
2017-09-03T12:08:39.696Z,26.6
2017-09-03T12:09:41.312Z,26.4
2017-09-03T12:10:42.764Z,26.3
2017-09-03T12:11:44.166Z,26.0
2017-09-03T12:12:45.547Z,25.8
2017-09-03T12:13:46.943Z,25.8
2017-09-03T12:14:48.617Z,25.8
2017-09-03T12:15:50.052Z,25.9
2017-09-03T12:16:51.438Z,26.0
2017-09-03T12:17:52.874Z,25.9
2017-09-03T12:18:54.290Z,25.9
2017-09-03T12:19:55.680Z,25.4
2017-09-03T12:20:57.072Z,25.2
2017-09-03T12:21:58.460Z,25.0
2017-09-03T12:22:59.849Z,24.9
2017-09-03T12:24:01.241Z,24.8
2017-09-03T12:25:02.629Z,24.7
2017-09-03T12:26:04.016Z,24.7
2017-09-03T12:27:05.407Z,24.8
2017-09-03T12:28:07.015Z,24.9
2017-09-03T12:29:08.401Z,24.9
2017-09-03T12:30:09.922Z,24.9
2017-09-03T12:31:11.272Z,24.9
2017-09-03T12:32:12.667Z,24.9
2017-09-03T12:33:14.045Z,24.9
2017-09-03T12:34:15.437Z,24.9
2017-09-03T12:35:17.116Z,25.0
2017-09-03T12:36:18.507Z,25.3
2017-09-03T12:37:19.894Z,25.4
2017-09-03T12:38:21.292Z,25.6
2017-09-03T12:39:22.678Z,25.7
2017-09-03T12:40:24.070Z,25.8
2017-09-03T12:41:25.460Z,26.0
2017-09-03T12:42:26.859Z,26.2
2017-09-03T12:43:28.247Z,26.4
2017-09-03T12:44:30.017Z,26.5
2017-09-03T12:45:31.401Z,26.5
2017-09-03T12:46:32.795Z,26.7
2017-09-03T12:47:34.178Z,26.9
2017-09-03T12:48:35.573Z,27.2
2017-09-03T12:49:36.957Z,27.3
2017-09-03T12:50:38.352Z,27.3
2017-09-03T12:51:39.747Z,27.3
2017-09-03T12:52:41.136Z,27.4
2017-09-03T12:53:42.526Z,27.5
2017-09-03T12:54:43.916Z,27.4
2017-09-03T12:55:45.323Z,27.5
2017-09-03T12:56:46.720Z,27.6
2017-09-03T12:57:48.106Z,27.7
2017-09-03T12:58:49.501Z,27.8
2017-09-03T12:59:50.887Z,27.9
2017-09-03T13:00:52.281Z,28.0
2017-09-03T13:01:53.964Z,28.0
2017-09-03T13:02:55.439Z,28.0
2017-09-03T13:03:56.823Z,27.9
2017-09-03T13:04:58.220Z,27.8
2017-09-03T13:05:59.895Z,28.0
2017-09-03T13:07:01.297Z,28.1
2017-09-03T13:08:02.683Z,28.3
2017-09-03T13:09:04.083Z,28.4
2017-09-03T13:10:05.474Z,28.3
2017-09-03T13:11:06.866Z,28.2
2017-09-03T13:12:08.256Z,28.2
2017-09-03T13:13:10.040Z,28.3
2017-09-03T13:14:11.429Z,28.2
2017-09-03T13:15:12.834Z,28.1
2017-09-03T13:16:14.211Z,28.0
2017-09-03T13:17:15.608Z,27.9
2017-09-03T13:18:16.993Z,28.0
2017-09-03T13:19:18.389Z,28.0
2017-09-03T13:20:19.781Z,28.1
2017-09-03T13:21:21.177Z,28.1
2017-09-03T13:22:22.574Z,28.0
2017-09-03T13:23:23.963Z,27.8
2017-09-03T13:24:25.356Z,27.9
2017-09-03T13:25:26.757Z,27.8
2017-09-03T13:26:28.147Z,27.8
2017-09-03T13:27:29.540Z,27.9
2017-09-03T13:28:30.940Z,28.0
2017-09-03T13:29:32.387Z,28.1
2017-09-03T13:30:33.777Z,28.2
2017-09-03T13:31:35.181Z,28.4
2017-09-03T13:32:36.575Z,28.4
2017-09-03T13:33:37.966Z,28.4
2017-09-03T13:34:39.362Z,28.3
2017-09-03T13:35:40.749Z,28.2
2017-09-03T13:36:42.135Z,28.2
2017-09-03T13:37:43.530Z,28.1
2017-09-03T13:38:44.921Z,28.1
2017-09-03T13:39:46.323Z,28.2
2017-09-03T13:40:47.713Z,28.2
2017-09-03T13:41:49.486Z,28.2
2017-09-03T13:42:50.884Z,28.4
2017-09-03T13:43:52.301Z,28.5
2017-09-03T13:44:53.696Z,28.7
2017-09-03T13:45:55.137Z,28.7
2017-09-03T13:46:56.532Z,28.7
2017-09-03T13:47:57.965Z,28.8
2017-09-03T13:48:59.476Z,28.7